Latest Weather Observations for PORTABLE NPWS NSW02

IDN60801

Issued at 6:23 pm EST Saturday 9 May 2026 (issued every 10 minutes, with the page automatically refreshed every 10 minutes)

About weather observations | Map of weather stations | Latest weather observations for NSW | Other Formats
Station Details ID: 250099 Name: PORTABLE NPWS NSW02 Lat: -33.10 Lon: 150.07 Height: 983.0 m

Portable automatic weather stations (PAWS) are operated by other organisations, such as Fire and Emergency Services, and are included here by agreement. Portable stations may be deployed to a location for a short period and their location may be subject to change without notice. Wind observations from these stations are provided from heights of either three (3) or ten (10) metres above ground level (AGL).

Data from the previous 72 hours. | See also: Recent months for locations in New South Wales
Date/Time
EST
Temp
°C
App
Temp
°C
Dew
Point
°C
Rel
Hum
%
Delta-T
°C
Wind Press
QNH
hPa
Press
MSL
hPa
Rain since
9am
mm
Dir  Spd
km/h
Gust
km/h
Spd
kts
Gust
kts
09/06:10pm 13.4 11.3 3.9 52 4.6 N 4 4 2 2 - - 0.0
09/06:00pm 13.4 11.7 4.2 53 4.4 NNW 2 4 1 2 - - 0.0
09/05:50pm 13.5 11.8 4.2 53 4.5 NW 2 4 1 2 - - 0.0
09/05:40pm 13.7 12.0 4.2 52 4.6 NNW 2 4 1 2 - - 0.0
09/05:30pm 13.9 12.3 4.3 52 4.7 NNW 2 2 1 1 - - 0.0
09/05:20pm 14.2 12.2 4.3 51 4.8 N 4 4 2 2 - - 0.0
09/05:10pm 14.5 12.5 4.2 50 5.0 NE 4 4 2 2 - - 0.0
09/05:00pm 14.9 12.8 4.1 48 5.3 NE 4 6 2 3 - - 0.0
09/04:50pm 15.4 13.0 4.1 47 5.5 NE 6 6 3 3 - - 0.0
09/04:40pm 15.7 13.6 3.9 45 5.8 NE 4 6 2 3 - - 0.0
09/04:30pm 15.8 13.3 4.0 45 5.8 NE 6 7 3 4 - - 0.0
09/04:20pm 16.0 13.6 4.1 45 5.8 NE 6 7 3 4 - - 0.0
09/04:10pm 16.4 13.9 4.0 43 6.1 ENE 6 7 3 4 - - 0.0
09/04:00pm 16.5 14.0 3.8 42 6.2 NE 6 7 3 4 - - 0.0
09/03:50pm 16.4 13.9 4.0 43 6.1 ENE 6 7 3 4 - - 0.0
09/03:40pm 16.5 14.1 4.2 44 6.1 ENE 6 7 3 4 - - 0.0
09/03:30pm 16.8 14.4 4.1 43 6.3 ENE 6 7 3 4 - - 0.0
09/03:20pm 16.6 14.2 4.1 43 6.2 ENE 6 9 3 5 - - 0.0
09/03:10pm 17.1 14.7 4.1 42 6.4 NE 6 7 3 4 - - 0.0
09/03:00pm 16.6 14.0 4.0 43 6.2 NE 7 9 4 5 - - 0.0
09/02:50pm 16.7 14.1 4.4 44 6.1 ENE 7 9 4 5 - - 0.0
09/02:40pm 17.1 14.7 4.5 43 6.3 NE 6 7 3 4 - - 0.0
09/02:30pm 16.8 14.4 4.5 44 6.1 ENE 6 7 3 4 - - 0.0
09/02:20pm 16.7 14.1 4.4 44 6.1 ENE 7 9 4 5 - - 0.0
09/02:10pm 17.0 14.4 4.2 42 6.3 NNE 7 11 4 6 - - 0.0
09/02:00pm 17.1 14.8 4.8 44 6.2 NNE 6 9 3 5 - - 0.0
09/01:50pm 16.3 13.9 4.2 44 6.0 NE 6 7 3 4 - - 0.0
09/01:40pm 15.8 13.2 4.2 46 5.7 NE 7 11 4 6 - - 0.0
09/01:30pm 16.4 14.0 4.4 45 5.9 NE 6 7 3 4 - - 0.0
09/01:20pm 16.5 14.1 4.3 44 6.0 NNE 6 7 3 4 - - 0.0
09/01:10pm 16.4 13.5 4.5 45 5.9 N 9 13 5 7 - - 0.0
09/01:00pm 16.1 13.5 4.4 45 5.8 N 7 9 4 5 - - 0.0
09/12:50pm 16.2 13.6 4.4 45 5.8 NNW 7 11 4 6 - - 0.0
09/12:40pm 16.1 13.7 4.3 45 5.8 N 6 9 3 5 - - 0.0
09/12:30pm 16.0 13.0 4.1 45 5.8 NNW 9 11 5 6 - - 0.0
09/12:20pm 16.1 13.5 4.3 45 5.8 NNW 7 11 4 6 - - 0.0
09/12:10pm 16.0 13.7 4.8 47 5.6 N 6 9 3 5 - - 0.0
09/12:00pm 16.0 13.6 4.4 46 5.7 N 6 9 3 5 - - 0.0
09/11:50am 15.2 13.1 4.0 47 5.5 NNE 4 7 2 4 - - 0.0
09/11:40am 15.0 12.4 4.2 48 5.3 NNW 7 9 4 5 - - 0.0
09/11:30am 14.7 11.7 4.3 49 5.1 N 9 9 5 5 - - 0.0
09/11:20am 14.4 11.9 4.6 51 4.8 N 7 9 4 5 - - 0.0
09/11:10am 14.1 11.6 5.0 54 4.5 N 7 9 4 5 - - 0.0
09/11:00am 14.2 11.9 4.8 53 4.6 N 6 7 3 4 - - 0.0
09/10:50am 14.1 11.8 4.9 54 4.5 NNE 6 7 3 4 - - 0.0
09/10:40am 13.7 11.3 4.4 53 4.5 NNE 6 7 3 4 - - 0.0
09/10:30am 14.2 12.2 4.4 51 4.8 ENE 4 7 2 4 - - 0.0
09/10:20am 13.7 11.8 4.7 54 4.4 NE 4 6 2 3 - - 0.0
09/10:10am 13.8 12.0 5.6 57 4.1 ENE 4 6 2 3 - - 0.0
09/10:00am 13.9 12.0 5.0 55 4.4 E 4 7 2 4 - - 0.0
09/09:50am 13.6 11.7 5.0 56 4.2 ENE 4 4 2 2 - - 0.0
09/09:40am 12.9 10.9 4.6 57 4.0 NE 4 7 2 4 - - 0.0
09/09:30am 12.7 10.3 4.2 56 4.1 NE 6 7 3 4 - - 0.0
09/09:20am 12.9 10.6 4.7 57 4.0 NE 6 7 3 4 - - 0.0
09/09:10am 13.1 10.8 4.9 57 4.0 NE 6 7 3 4 - - 0.0
09/09:00am 13.2 10.8 4.5 55 4.2 E 6 6 3 3 - - 0.0
09/08:50am 12.8 10.9 4.7 58 3.9 E 4 6 2 3 - - 0.0
09/08:40am 12.5 10.2 4.9 60 3.7 ESE 6 6 3 3 - - 0.0
09/08:30am 12.3 10.1 5.1 61 3.5 SE 6 7 3 4 - - 0.0
09/08:20am 12.3 10.4 5.1 61 3.5 ESE 4 6 2 3 - - 0.0
09/08:10am 12.1 10.2 4.8 61 3.5 SE 4 4 2 2 - - 0.0
09/08:00am 11.7 9.8 4.7 62 3.4 ESE 4 6 2 3 - - 0.0
09/07:50am 10.9 8.9 4.5 64 3.1 ESE 4 6 2 3 - - 0.0
09/07:40am 9.8 8.1 4.2 68 2.6 ENE 2 2 1 1 - - 0.0
09/07:30am 8.5 6.8 4.0 73 2.1 ESE 2 6 1 3 - - 0.0
09/07:20am 7.6 5.5 3.9 77 1.7 SE 4 6 2 3 - - 0.0
09/07:10am 6.7 5.0 4.2 84 1.1 W 2 4 1 2 - - 0.0
09/07:00am 6.8 4.2 4.2 83 1.2 SSE 7 9 4 5 - - 0.0
09/06:50am 6.7 3.7 4.1 83 1.2 SSE 9 11 5 6 - - 0.0
09/06:40am 6.6 3.6 4.2 85 1.1 SSE 9 11 5 6 - - 0.0
09/06:30am 6.7 3.3 4.1 83 1.2 SSE 11 11 6 6 - - 0.0
09/06:20am 6.7 3.7 4.1 83 1.2 SSE 9 11 5 6 - - 0.0
09/06:10am 6.6 3.6 4.1 84 1.1 S 9 11 5 6 - - 0.0
09/06:00am 6.7 3.7 4.1 83 1.2 S 9 13 5 7 - - 0.0
09/05:50am 6.6 3.2 4.2 85 1.1 S 11 13 6 7 - - 0.0
09/05:40am 6.6 2.9 4.2 85 1.1 S 13 15 7 8 - - 0.0
09/05:30am 6.5 2.4 4.3 86 1.0 S 15 17 8 9 - - 0.0
09/05:20am 6.5 2.4 4.4 86 1.0 S 15 17 8 9 - - 0.0
09/05:10am 6.4 2.3 4.4 87 0.9 S 15 17 8 9 - - 0.0
09/05:00am 6.2 2.5 4.4 88 0.8 S 13 15 7 8 - - 0.0
09/04:50am 6.2 2.9 4.5 89 0.8 S 11 13 6 7 - - 0.0
09/04:40am 6.2 2.9 4.5 89 0.8 S 11 13 6 7 - - 0.0
09/04:30am 6.2 2.5 4.6 89 0.7 S 13 15 7 8 - - 0.0
09/04:20am 6.3 2.6 4.6 89 0.8 S 13 15 7 8 - - 0.0
09/04:10am 6.3 2.6 4.7 89 0.7 S 13 15 7 8 - - 0.0
09/04:00am 6.2 2.9 4.7 90 0.7 SSW 11 15 6 8 - - 0.0
09/03:50am 6.2 3.3 4.7 90 0.7 SSW 9 13 5 7 - - 0.0
09/03:40am 6.3 3.4 4.7 89 0.7 SSW 9 11 5 6 - - 0.0
09/03:30am 6.4 3.5 4.7 89 0.8 SSW 9 11 5 6 - - 0.0
09/03:20am 6.4 3.5 4.7 89 0.8 SSW 9 11 5 6 - - 0.0
09/03:10am 6.6 3.7 4.8 88 0.8 SSW 9 11 5 6 - - 0.0
09/03:00am 6.6 4.1 4.8 88 0.8 SSW 7 13 4 7 - - 0.0
09/02:50am 6.8 3.5 4.7 86 1.0 SSW 11 15 6 8 - - 0.0
09/02:40am 6.9 2.9 4.7 86 1.0 S 15 20 8 11 - - 0.0
09/02:30am 7.0 3.0 4.7 85 1.1 SSW 15 20 8 11 - - 0.0
09/02:20am 7.0 2.6 4.8 86 1.0 S 17 20 9 11 - - 0.0
09/02:10am 7.0 3.0 4.8 86 1.0 S 15 19 8 10 - - 0.0
09/02:00am 7.0 3.0 4.9 86 1.0 S 15 19 8 10 - - 0.0
09/01:50am 7.0 3.0 4.9 86 1.0 SSW 15 17 8 9 - - 0.0
09/01:40am 7.0 3.4 4.9 86 1.0 SSW 13 17 7 9 - - 0.0
09/01:30am 7.1 3.1 4.9 86 1.0 SSW 15 20 8 11 - - 0.0
09/01:20am 7.0 3.4 4.9 86 1.0 SSW 13 17 7 9 - - 0.0
09/01:10am 7.1 3.5 4.8 85 1.1 SSW 13 17 7 9 - - 0.0
09/01:00am 7.2 3.6 4.8 85 1.1 SSW 13 19 7 10 - - 0.0
09/12:50am 7.3 4.0 4.8 84 1.2 SW 11 15 6 8 - - 0.0
09/12:40am 7.4 3.8 4.8 83 1.2 SW 13 15 7 8 - - 0.0
09/12:30am 7.4 3.4 4.7 83 1.3 SW 15 19 8 10 - - 0.0
09/12:20am 7.4 3.4 4.7 83 1.3 SSW 15 20 8 11 - - 0.0
09/12:10am 7.4 3.4 4.8 83 1.2 SSW 15 20 8 11 - - 0.0
09/12:00am 7.5 4.2 4.7 82 1.3 SW 11 17 6 9 - - 0.0
 
Date/Time
EST
Temp
°C
App
Temp
°C
Dew
Point
°C
Rel
Hum
%
Delta-T
°C
Wind Press
QNH
hPa
Press
MSL
hPa
Rain since
9am
mm
Dir  Spd
km/h
Gust
km/h
Spd
kts
Gust
kts
08/11:50pm 7.7 4.0 4.7 81 1.4 SW 13 17 7 9 - - 0.0
08/11:40pm 7.7 3.3 4.6 81 1.4 SW 17 20 9 11 - - 0.0
08/11:30pm 7.7 2.9 4.5 80 1.5 SW 19 22 10 12 - - 0.0
08/11:20pm 7.7 2.9 4.6 81 1.4 SW 19 26 10 14 - - 0.0
08/11:10pm 7.7 3.3 4.6 81 1.4 SW 17 24 9 13 - - 0.0
08/11:00pm 7.7 3.3 4.7 81 1.4 SW 17 20 9 11 - - 0.0
08/10:50pm 7.7 2.9 4.5 80 1.5 SW 19 22 10 12 - - 0.0
08/10:40pm 7.7 2.9 4.5 80 1.5 SW 19 22 10 12 - - 0.0
08/10:30pm 7.7 2.9 4.5 80 1.5 WSW 19 22 10 12 - - 0.0
08/10:20pm 7.8 2.8 4.5 79 1.5 WSW 20 24 11 13 - - 0.0
08/10:10pm 7.8 2.8 4.5 79 1.5 WSW 20 22 11 12 - - 0.0
08/10:00pm 7.8 2.8 4.4 79 1.6 WSW 20 26 11 14 - - 0.0
08/09:50pm 7.8 2.9 4.3 78 1.6 WSW 19 24 10 13 - - 0.0
08/09:40pm 7.7 3.6 4.3 79 1.6 SW 15 20 8 11 - - 0.0
08/09:30pm 7.7 3.6 4.3 79 1.6 SW 15 20 8 11 - - 0.0
08/09:20pm 7.7 4.0 4.3 79 1.6 SW 13 17 7 9 - - 0.0
08/09:10pm 7.8 3.7 4.5 79 1.5 SW 15 19 8 10 - - 0.0
08/09:00pm 7.8 4.1 4.6 80 1.5 SW 13 19 7 10 - - 0.0
08/08:50pm 7.9 4.2 4.6 80 1.5 WSW 13 20 7 11 - - 0.0
08/08:40pm 8.0 4.3 4.6 79 1.6 WSW 13 19 7 10 - - 0.0
08/08:30pm 8.0 3.9 4.5 78 1.6 SW 15 20 8 11 - - 0.0
08/08:20pm 8.1 4.0 4.6 78 1.6 SW 15 19 8 10 - - 0.0
08/08:10pm 8.1 5.2 4.7 79 1.6 SW 9 13 5 7 - - 0.0
08/08:00pm 8.2 5.3 4.7 78 1.6 SSW 9 11 5 6 - - 0.0
08/07:50pm 8.1 4.4 4.5 78 1.7 WSW 13 17 7 9 - - 0.0
08/07:40pm 8.1 4.8 4.4 77 1.7 WSW 11 19 6 10 - - 0.0
08/07:30pm 8.0 3.5 4.4 78 1.7 SW 17 20 9 11 - - 0.0
08/07:20pm 8.0 3.1 4.3 77 1.7 SW 19 26 10 14 - - 0.0
08/07:10pm 7.9 4.6 4.4 78 1.6 SW 11 19 6 10 - - 0.0
08/07:00pm 7.9 4.6 4.3 78 1.7 SW 11 13 6 7 - - 0.0
08/06:50pm 7.7 4.7 4.2 78 1.6 SW 9 15 5 8 - - 0.0
08/06:40pm 7.6 4.2 4.2 79 1.6 SSW 11 17 6 9 - - 0.0
08/06:30pm 7.5 4.2 4.3 80 1.5 S 11 19 6 10 - - 0.0
08/06:20pm 7.4 4.1 4.3 81 1.4 SSW 11 26 6 14 - - 0.0
08/06:10pm 7.3 3.6 4.3 81 1.4 S 13 17 7 9 - - 0.0
08/06:00pm 7.3 2.8 4.4 82 1.3 SW 17 30 9 16 - - 0.0
08/05:50pm 7.3 2.2 4.3 81 1.4 SW 20 28 11 15 - - 0.0
08/05:40pm 7.3 -0.1 4.2 81 1.4 SW 32 43 17 23 - - 0.0
08/05:30pm 7.3 -1.4 4.1 80 1.5 WSW 39 46 21 25 - - 0.0
08/05:20pm 7.3 -2.2 4.1 80 1.5 WSW 43 52 23 28 - - 0.0
08/05:10pm 7.3 -1.8 4.1 80 1.5 WSW 41 48 22 26 - - 0.0
08/05:00pm 7.4 -0.9 4.0 79 1.6 WSW 37 41 20 22 - - 0.0
08/04:50pm 7.5 -1.6 3.9 78 1.6 WSW 41 44 22 24 - - 0.0
08/04:40pm 7.7 -0.7 3.7 76 1.8 WSW 37 44 20 24 - - 0.0
08/04:30pm 7.8 -1.7 3.7 75 1.9 WSW 43 48 23 26 - - 0.0
08/04:20pm 8.2 -0.6 3.7 73 2.1 WSW 39 46 21 25 - - 0.0
08/04:10pm 8.3 -0.1 3.5 72 2.2 WSW 37 46 20 25 - - 0.0
08/04:00pm 8.8 1.1 3.4 69 2.5 WSW 33 44 18 24 - - 0.0
08/03:50pm 9.1 0.7 3.7 69 2.5 WSW 37 41 20 22 - - 0.0
08/03:40pm 9.9 3.6 3.7 65 2.9 WSW 26 43 14 23 - - 0.0
08/03:30pm 9.9 2.8 3.7 65 2.9 WSW 30 35 16 19 - - 0.0
08/03:20pm 9.9 2.8 3.6 65 2.9 W 30 35 16 19 - - 0.0
08/03:10pm 9.8 2.3 3.6 65 2.9 WSW 32 39 17 21 - - 0.0
08/03:00pm 10.1 3.0 3.5 63 3.1 W 30 35 16 19 - - 0.0
08/02:50pm 9.7 1.6 3.4 65 2.9 WSW 35 43 19 23 - - 0.0
08/02:40pm 9.9 0.7 3.4 64 3.0 WSW 41 46 22 25 - - 0.0
08/02:30pm 10.7 3.5 3.2 60 3.5 W 30 37 16 20 - - 0.0
08/02:20pm 10.5 2.8 3.3 61 3.3 WSW 33 39 18 21 - - 0.0
08/02:10pm 10.4 1.9 3.2 61 3.3 W 37 43 20 23 - - 0.0
08/02:00pm 10.4 2.0 3.5 62 3.2 W 37 44 20 24 - - 0.0
08/01:50pm 10.7 2.7 3.6 61 3.3 W 35 43 19 23 - - 0.0
08/01:40pm 10.6 2.6 3.6 62 3.3 W 35 46 19 25 - - 0.0
08/01:30pm 10.6 1.8 3.5 61 3.3 WSW 39 43 21 23 - - 0.0
08/01:20pm 10.8 1.5 3.2 59 3.5 WSW 41 46 22 25 - - 0.0
08/01:10pm 11.2 3.5 3.5 59 3.6 WSW 33 37 18 20 - - 0.0
08/01:00pm 11.3 3.6 3.5 58 3.6 WSW 33 37 18 20 - - 0.0
08/12:50pm 11.4 4.6 3.3 57 3.8 WSW 28 35 15 19 - - 0.0
08/12:40pm 11.1 5.1 3.4 59 3.6 W 24 28 13 15 - - 0.0
08/12:30pm 10.8 4.0 3.2 59 3.5 W 28 32 15 17 - - 0.0
08/12:20pm 10.6 3.5 3.4 61 3.3 W 30 37 16 20 - - 0.0
08/12:10pm 10.2 2.7 3.3 62 3.2 W 32 37 17 20 - - 0.0
08/12:00pm 9.8 1.7 3.5 65 2.9 W 35 39 19 21 - - 0.0
08/11:50am 9.5 2.0 3.3 65 2.8 WSW 32 37 17 20 - - 0.0
08/11:40am 8.8 0.3 3.2 68 2.5 WSW 37 46 20 25 - - 0.0
08/11:30am 8.6 -0.6 3.3 69 2.4 WSW 41 52 22 28 - - 0.0
08/11:20am 8.6 -0.3 3.2 69 2.5 WSW 39 44 21 24 - - 0.0
08/11:10am 8.5 -0.4 3.2 69 2.4 WSW 39 43 21 23 - - 0.0
08/11:00am 8.5 0.4 3.1 69 2.4 WSW 35 39 19 21 - - 0.0
08/10:50am 8.3 0.1 2.9 69 2.4 WSW 35 41 19 22 - - 0.0
08/10:40am 8.2 0.4 2.9 69 2.4 WSW 33 41 18 22 - - 0.0
08/10:30am 8.1 0.5 2.7 69 2.4 WSW 32 33 17 18 - - 0.0
08/10:20am 7.6 -0.6 2.5 70 2.3 WSW 35 41 19 22 - - 0.0
08/10:10am 7.5 -0.8 2.4 70 2.3 WSW 35 43 19 23 - - 0.0
08/10:00am 7.3 -0.5 2.6 72 2.1 WSW 33 44 18 24 - - 0.0
08/09:50am 7.3 0.0 2.5 71 2.1 WSW 30 33 16 18 - - 0.0
08/09:40am 7.2 -0.7 2.4 71 2.1 W 33 35 18 19 - - 0.0
08/09:30am 7.0 -0.3 2.2 71 2.1 W 30 35 16 19 - - 0.0
08/09:20am 6.6 -1.7 2.0 72 2.0 W 35 43 19 23 - - 0.0
08/09:10am 6.4 -1.5 2.0 73 1.9 WSW 33 39 18 21 - - 0.0
08/09:00am 6.3 -1.1 1.8 73 1.9 WSW 30 37 16 20 - - 0.0
08/08:50am 6.0 -2.0 1.7 74 1.8 WSW 33 37 18 20 - - 0.0
08/08:40am 5.7 -2.7 1.7 75 1.7 WSW 35 37 19 20 - - 0.0
08/08:30am 5.6 -2.2 1.6 75 1.7 WSW 32 43 17 23 - - 0.0
08/08:20am 5.4 -3.4 1.6 76 1.6 WSW 37 46 20 25 - - 0.0
08/08:10am 5.4 -2.4 1.6 76 1.6 WSW 32 39 17 21 - - 0.0
08/08:00am 5.1 -3.7 1.6 78 1.5 WSW 37 43 20 23 - - 0.0
08/07:50am 4.9 -3.5 1.5 79 1.4 WSW 35 41 19 22 - - 0.0
08/07:40am 4.7 -4.9 1.4 79 1.4 WSW 41 44 22 24 - - 0.0
08/07:30am 4.5 -4.7 1.3 80 1.3 WSW 39 44 21 24 - - 0.0
08/07:20am 4.1 -5.1 1.2 81 1.2 WSW 39 43 21 23 - - 0.0
08/07:10am 3.9 -5.3 1.1 82 1.2 WSW 39 48 21 26 - - 0.0
08/07:00am 3.8 -5.4 1.1 82 1.1 WSW 39 43 21 23 - - 0.0
08/06:50am 3.8 -5.8 1.0 82 1.2 WSW 41 48 22 26 - - 0.0
08/06:40am 3.7 -6.3 0.9 82 1.1 WSW 43 46 23 25 - - 0.0
08/06:30am 3.7 -5.9 1.0 82 1.1 WSW 41 48 22 26 - - 0.0
08/06:20am 3.7 -5.9 1.0 82 1.1 WSW 41 46 22 25 - - 0.0
08/06:10am 3.7 -5.9 1.0 82 1.1 WSW 41 48 22 26 - - 0.0
08/06:00am 3.6 -5.3 0.9 82 1.1 WSW 37 44 20 24 - - 0.0
08/05:50am 3.6 -4.9 0.8 82 1.1 WSW 35 43 19 23 - - 0.0
08/05:40am 3.6 -4.3 0.8 82 1.1 WSW 32 35 17 19 - - 0.0
08/05:30am 3.5 -3.7 0.7 82 1.1 WSW 28 35 15 19 - - 0.0
08/05:20am 3.6 -4.5 0.8 82 1.1 WSW 33 39 18 21 - - 0.0
08/05:10am 3.6 -4.5 0.8 82 1.1 SW 33 39 18 21 - - 0.0
08/05:00am 3.4 -4.2 0.7 82 1.1 WSW 30 43 16 23 - - 0.0
08/04:50am 3.4 -3.5 0.4 81 1.2 SW 26 35 14 19 - - 0.0
08/04:40am 3.2 -5.4 0.2 81 1.2 SW 35 41 19 22 - - 0.0
08/04:30am 3.1 -5.5 0.1 81 1.2 WSW 35 41 19 22 - - 0.0
08/04:20am 3.0 -5.3 0.0 81 1.2 WSW 33 41 18 22 - - 0.0
08/04:10am 3.0 -6.4 -0.1 80 1.2 WSW 39 44 21 24 - - 0.0
08/04:00am 3.0 -6.0 -0.2 79 1.3 WSW 37 48 20 26 - - 0.0
08/03:50am 3.0 -7.2 -0.2 79 1.3 WSW 43 50 23 27 - - 0.0
08/03:40am 2.9 -6.5 -0.3 79 1.3 WSW 39 43 21 23 - - 0.0
08/03:30am 2.9 -6.6 -0.5 78 1.3 WSW 39 43 21 23 - - 0.0
08/03:20am 2.8 -7.4 -0.5 79 1.3 WSW 43 46 23 25 - - 0.0
08/03:10am 2.8 -6.3 -0.6 78 1.3 WSW 37 44 20 24 - - 0.0
08/03:00am 2.7 -6.0 -0.6 79 1.3 WSW 35 41 19 22 - - 0.0
08/02:50am 2.7 -6.0 -0.6 79 1.3 WSW 35 43 19 23 - - 0.0
08/02:40am 2.7 -6.8 -0.6 79 1.3 WSW 39 44 21 24 - - 0.0
08/02:30am 2.7 -6.0 -0.6 79 1.3 WSW 35 44 19 24 - - 0.0
08/02:20am 2.7 -6.4 -0.6 79 1.3 WSW 37 43 20 23 - - 0.0
08/02:10am 2.8 -5.0 -0.6 78 1.3 WSW 30 33 16 18 - - 0.0
08/02:00am 2.8 -5.0 -0.7 78 1.4 WSW 30 33 16 18 - - 0.0
08/01:50am 2.7 -5.1 -0.6 79 1.3 WSW 30 37 16 20 - - 0.0
08/01:40am 2.8 -4.2 -0.6 78 1.3 WSW 26 32 14 17 - - 0.0
08/01:30am 2.8 -4.6 -0.7 78 1.4 WSW 28 33 15 18 - - 0.0
08/01:20am 2.7 -3.9 -0.7 78 1.3 WSW 24 32 13 17 - - 0.0
08/01:10am 2.8 -4.6 -0.8 77 1.4 WSW 28 35 15 19 - - 0.0
08/01:00am 2.7 -4.7 -0.7 78 1.3 WSW 28 30 15 16 - - 0.0
08/12:50am 2.7 -4.3 -0.8 78 1.4 WSW 26 30 14 16 - - 0.0
08/12:40am 2.6 -4.5 -0.9 78 1.4 WSW 26 33 14 18 - - 0.0
08/12:30am 2.6 -5.6 -1.0 77 1.4 WSW 32 37 17 20 - - 0.0
08/12:20am 2.5 -5.9 -1.1 77 1.4 WSW 33 39 18 21 - - 0.0
08/12:10am 2.4 -5.8 -1.2 77 1.4 WSW 32 35 17 19 - - 0.0
08/12:00am 2.4 -5.1 -1.4 76 1.4 WSW 28 32 15 17 - - 0.0
 
Date/Time
EST
Temp
°C
App
Temp
°C
Dew
Point
°C
Rel
Hum
%
Delta-T
°C
Wind Press
QNH
hPa
Press
MSL
hPa
Rain since
9am
mm
Dir  Spd
km/h
Gust
km/h
Spd
kts
Gust
kts
07/11:50pm 2.4 -4.4 -1.5 75 1.5 WSW 24 32 13 17 - - 0.0
07/11:40pm 2.3 -3.7 -1.6 75 1.5 WSW 20 28 11 15 - - 0.0
07/11:30pm 2.4 -4.4 -1.6 75 1.5 WSW 24 30 13 16 - - 0.0
07/11:20pm 2.4 -4.0 -1.7 74 1.6 WSW 22 28 12 15 - - 0.0
07/11:10pm 2.4 -4.4 -1.7 74 1.6 WSW 24 32 13 17 - - 0.0
07/11:00pm 2.4 -3.0 -1.7 74 1.6 WSW 17 20 9 11 - - 0.0
07/10:50pm 2.5 -3.0 -1.8 73 1.6 WSW 17 20 9 11 - - 0.0
07/10:40pm 2.5 -2.2 -1.8 73 1.6 WSW 13 19 7 10 - - 0.0
07/10:30pm 2.6 -2.1 -1.8 73 1.7 WSW 13 17 7 9 - - 0.0
07/10:20pm 2.6 -2.1 -1.9 72 1.7 WSW 13 19 7 10 - - 0.0
07/10:10pm 2.6 -3.3 -2.0 72 1.7 WSW 19 24 10 13 - - 0.0
07/10:00pm 2.6 -3.3 -2.1 71 1.8 WSW 19 22 10 12 - - 0.0
07/09:50pm 2.7 -3.4 -2.0 71 1.8 WSW 20 24 11 13 - - 0.0
07/09:40pm 2.7 -3.2 -2.2 70 1.8 WSW 19 24 10 13 - - 0.0
07/09:30pm 2.7 -2.8 -2.2 70 1.8 WSW 17 20 9 11 - - 0.0
07/09:20pm 2.8 -2.7 -2.2 69 1.9 WSW 17 22 9 12 - - 0.0
07/09:10pm 2.9 -3.6 -2.3 68 1.9 WSW 22 28 12 15 - - 0.0
07/09:00pm 2.9 -4.3 -2.3 68 1.9 W 26 39 14 21 - - 0.0
07/08:50pm 3.0 -4.6 -2.3 68 2.0 WSW 28 35 15 19 - - 0.0
07/08:40pm 3.0 -3.5 -2.3 68 2.0 WSW 22 32 12 17 - - 0.0
07/08:30pm 3.1 -4.1 -2.4 67 2.1 W 26 30 14 16 - - 0.0
07/08:20pm 3.2 -4.8 -2.4 67 2.1 W 30 35 16 19 - - 0.0
07/08:10pm 3.3 -4.3 -2.5 66 2.2 W 28 35 15 19 - - 0.0
07/08:00pm 3.4 -3.8 -2.4 66 2.2 W 26 28 14 15 - - 0.0
07/07:50pm 3.6 -2.9 -2.4 65 2.3 W 22 37 12 20 - - 0.0
07/07:40pm 3.7 -2.8 -2.4 64 2.3 W 22 32 12 17 - - 0.0
07/07:30pm 3.8 -2.7 -2.4 64 2.3 WSW 22 28 12 15 - - 0.0
07/07:20pm 3.8 -2.1 -2.5 63 2.4 W 19 26 10 14 - - 0.0
07/07:10pm 3.9 -1.7 -2.5 63 2.4 W 17 22 9 12 - - 0.0
07/07:00pm 3.9 -1.7 -2.6 62 2.4 WNW 17 22 9 12 - - 0.0
07/06:50pm 4.1 -0.7 -2.6 61 2.5 W 13 19 7 10 - - 0.0
07/06:40pm 4.2 -1.4 -2.7 61 2.6 W 17 28 9 15 - - 0.0
07/06:30pm 4.3 -0.9 -2.8 60 2.7 WNW 15 26 8 14 - - 0.0
07/06:20pm 4.4 -1.2 -2.9 59 2.7 NW 17 24 9 13 - - 0.0
07/06:10pm 4.4 -0.8 -3.0 58 2.8 W 15 22 8 12 - - 0.0
07/06:00pm 4.5 -1.1 -3.1 58 2.8 W 17 26 9 14 - - 0.0
07/05:50pm 4.5 -1.7 -3.3 57 2.9 W 20 26 11 14 - - 0.0
07/05:40pm 4.6 -2.4 -3.3 56 2.9 W 24 30 13 16 - - 0.0
07/05:30pm 4.7 -1.5 -3.5 55 3.0 W 20 24 11 13 - - 0.0
07/05:20pm 4.8 -2.6 -3.6 54 3.1 WSW 26 33 14 18 - - 0.0
07/05:10pm 5.0 -3.2 -3.9 52 3.3 W 30 37 16 20 - - 0.0
07/05:00pm 5.1 -1.2 -4.0 52 3.3 W 20 30 11 16 - - 0.0
07/04:50pm 5.4 -0.9 -3.9 51 3.4 W 20 37 11 20 - - 0.0
07/04:40pm 5.9 -1.2 -4.1 48 3.7 W 24 32 13 17 - - 0.0
07/04:30pm 5.7 -1.7 -3.8 50 3.5 W 26 35 14 19 - - 0.0
07/04:20pm 6.6 -1.2 -3.8 47 3.9 WSW 28 33 15 18 - - 0.0
07/04:10pm 7.5 0.1 -4.0 44 4.4 WSW 26 33 14 18 - - 0.0
07/04:00pm 7.4 0.0 -4.0 44 4.3 W 26 37 14 20 - - 0.0
07/03:50pm 7.6 -0.2 -4.1 43 4.4 W 28 39 15 21 - - 0.0
07/03:40pm 7.8 -0.5 -4.5 41 4.6 W 30 44 16 24 - - 0.0
07/03:30pm 8.1 -0.1 -4.2 41 4.7 WSW 30 37 16 20 - - 0.0
07/03:20pm 7.9 0.0 -4.3 42 4.6 WSW 28 33 15 18 - - 0.0
07/03:10pm 8.0 -0.2 -4.3 41 4.7 WSW 30 37 16 20 - - 0.0
07/03:00pm 7.8 -0.8 -4.0 43 4.5 WSW 32 39 17 21 - - 0.0
07/02:50pm 8.0 -0.7 -4.9 39 4.8 WSW 32 37 17 20 - - 0.0
07/02:40pm 8.0 -1.3 -5.3 38 4.9 W 35 48 19 26 - - 0.0
07/02:30pm 7.9 0.0 -4.7 40 4.7 NW 28 35 15 19 - - 0.0
07/02:20pm 7.7 -0.9 -4.3 42 4.5 W 32 39 17 21 - - 0.0
07/02:10pm 7.9 -0.7 -4.1 42 4.6 WSW 32 37 17 20 - - 0.0
07/02:00pm 7.9 -1.3 -4.5 41 4.7 WSW 35 43 19 23 - - 0.0
07/01:50pm 7.7 -1.2 -4.8 41 4.7 WSW 33 46 18 25 - - 0.0
07/01:40pm 7.8 -1.5 -5.1 39 4.8 WSW 35 46 19 25 - - 0.0
07/01:30pm 7.2 -2.6 -6.2 38 4.8 W 37 43 20 23 - - 0.0
07/01:20pm 7.4 -3.1 -6.0 38 4.8 WSW 41 48 22 26 - - 0.0
07/01:10pm 8.0 -1.3 -5.8 37 5.0 W 35 46 19 25 - - 0.0
07/01:00pm 8.4 -0.3 -5.0 38 5.0 W 32 44 17 24 - - 0.0
07/12:50pm 8.5 -0.1 -4.5 39 4.9 WSW 32 41 17 22 - - 0.0
07/12:40pm 8.6 0.4 -3.6 42 4.7 WSW 30 37 16 20 - - 0.0
07/12:30pm 8.8 2.2 -3.4 42 4.8 WSW 22 33 12 18 - - 0.0
07/12:20pm 8.9 1.9 -3.3 42 4.8 WSW 24 35 13 19 - - 0.0
07/12:10pm 8.5 1.4 -4.0 41 4.8 W 24 32 13 17 - - 0.0
07/12:00pm 7.9 -1.2 -3.8 43 4.5 W 35 41 19 22 - - 0.0
07/11:50am 7.8 -1.0 -4.5 41 4.6 WSW 33 39 18 21 - - 0.0
07/11:40am 8.1 -0.7 -4.6 40 4.8 WSW 33 43 18 23 - - 0.0
07/11:30am 8.1 0.1 -5.4 38 5.0 WSW 28 37 15 20 - - 0.0
07/11:20am 7.9 -0.8 -4.8 40 4.7 WSW 32 39 17 21 - - 0.0
07/11:10am 7.6 1.3 -0.8 55 3.4 WSW 22 35 12 19 - - 0.0
07/11:00am 7.5 1.4 0.5 61 3.0 W 22 33 12 18 - - 0.0
07/10:50am 6.2 -0.5 1.5 72 2.0 W 26 33 14 18 - - 0.0
07/10:40am 6.0 -0.1 2.5 78 1.5 W 24 32 13 17 - - 0.0
07/10:30am 6.3 0.3 3.1 80 1.4 W 24 33 13 18 - - 0.0
07/10:20am 6.7 -0.4 3.6 80 1.4 WSW 30 35 16 19 - - 0.0
07/10:10am 7.7 2.6 4.2 78 1.6 NW 20 32 11 17 - - 0.0
07/10:00am 8.0 1.7 3.7 74 2.0 WNW 26 33 14 18 - - 0.0
07/09:50am 8.1 1.8 3.5 73 2.1 W 26 35 14 19 - - 0.0
07/09:40am 7.9 1.6 3.8 75 1.9 WNW 26 30 14 16 - - 0.0
07/09:30am 7.7 1.5 4.3 79 1.6 WNW 26 35 14 19 - - 0.0
07/09:20am 7.4 0.9 4.5 82 1.3 WNW 28 35 15 19 - - 0.0
07/09:10am 7.5 1.0 4.5 81 1.4 WNW 28 39 15 21 - - 0.0
07/09:00am 7.5 0.2 4.6 82 1.3 NW 32 39 17 21 - - 0.0
07/08:50am 7.4 0.9 4.5 82 1.3 WNW 28 37 15 20 - - 0.0
07/08:40am 7.4 0.4 4.3 81 1.4 NW 30 39 16 21 - - 0.0
07/08:30am 7.5 1.3 4.3 80 1.5 NW 26 39 14 21 - - 0.0
07/08:20am 7.5 1.6 4.0 78 1.6 WNW 24 43 13 23 - - 0.0
07/08:10am 7.5 2.4 4.0 78 1.6 NW 20 30 11 16 - - 0.0
07/08:00am 7.5 2.0 4.1 79 1.6 WNW 22 28 12 15 - - 0.0
07/07:50am 7.4 1.9 3.8 78 1.6 NW 22 30 12 16 - - 0.0
07/07:40am 7.1 1.6 3.8 79 1.5 WNW 22 28 12 15 - - 0.0
07/07:30am 6.9 1.0 3.7 80 1.4 WNW 24 33 13 18 - - 0.0
07/07:20am 6.4 0.4 3.5 82 1.3 WNW 24 32 13 17 - - 0.0
07/07:10am 6.1 0.5 3.4 83 1.2 W 22 32 12 17 - - 0.0
07/07:00am 6.1 0.1 3.2 82 1.3 W 24 30 13 16 - - 0.0
07/06:50am 6.1 -0.3 3.0 80 1.4 W 26 32 14 17 - - 0.0
07/06:40am 6.1 0.0 2.9 80 1.4 W 24 33 13 18 - - 0.0
07/06:30am 6.2 0.1 2.8 79 1.5 W 24 37 13 20 - - 0.0
07/06:20am 6.4 -1.2 2.7 77 1.6 WSW 32 41 17 22 - - 0.0
07/06:10am 6.3 -0.6 2.6 77 1.6 WSW 28 35 15 19 - - 0.0
07/06:00am 6.2 0.1 2.6 78 1.6 WSW 24 32 13 17 - - 0.0
07/05:50am 6.2 -0.7 2.5 77 1.6 WSW 28 30 15 16 - - 0.0
07/05:40am 6.1 -0.8 2.3 76 1.7 WSW 28 37 15 20 - - 0.0
07/05:30am 5.9 -1.4 2.4 78 1.5 WSW 30 35 16 19 - - 0.0
07/05:20am 5.8 -0.7 2.6 80 1.4 SW 26 32 14 17 - - 0.0
07/05:10am 5.8 -0.3 2.7 80 1.4 SW 24 32 13 17 - - 0.0
07/05:00am 5.7 0.3 2.7 81 1.3 WSW 20 26 11 14 - - 0.0
07/04:50am 5.7 1.4 3.0 83 1.2 WSW 15 19 8 10 - - 0.0
07/04:40am 5.8 1.5 3.1 83 1.2 WSW 15 24 8 13 - - 0.0
07/04:30am 5.9 1.2 3.1 82 1.2 WSW 17 22 9 12 - - 0.0
07/04:20am 6.0 0.7 3.2 82 1.2 SW 20 28 11 15 - - 0.0
07/04:10am 6.1 0.1 3.2 82 1.3 WSW 24 28 13 15 - - 0.0
07/04:00am 6.3 -0.1 3.3 81 1.3 WSW 26 30 14 16 - - 0.0
07/03:50am 6.4 0.1 3.6 82 1.3 WSW 26 32 14 17 - - 0.0
07/03:40am 6.4 0.1 3.8 83 1.2 WSW 26 32 14 17 - - 0.0
07/03:30am 6.5 1.0 3.9 83 1.2 WSW 22 30 12 16 - - 0.0
07/03:20am 6.5 1.4 4.0 84 1.1 SW 20 24 11 13 - - 0.0
07/03:10am 6.5 2.0 4.1 85 1.1 WSW 17 24 9 13 - - 0.0
07/03:00am 6.5 3.1 4.2 85 1.1 WSW 11 17 6 9 - - 0.0
07/02:50am 6.6 2.9 4.3 85 1.1 SW 13 20 7 11 - - 0.0
07/02:40am 6.7 2.2 4.4 85 1.1 WSW 17 22 9 12 - - 0.0
07/02:30am 6.8 1.8 4.5 85 1.1 SW 20 24 11 13 - - 0.0
07/02:20am 6.9 1.9 4.7 86 1.0 SW 20 24 11 13 - - 0.0
07/02:10am 7.1 1.8 4.9 86 1.0 WSW 22 24 12 13 - - 0.0
07/02:00am 7.1 2.4 5.0 86 1.0 WSW 19 22 10 12 - - 0.0
07/01:50am 7.2 2.3 5.1 86 1.0 WSW 20 30 11 16 - - 0.0
07/01:40am 7.4 2.5 5.2 86 1.0 WSW 20 24 11 13 - - 0.0
07/01:30am 7.5 2.3 5.3 86 1.0 SW 22 24 12 13 - - 0.0
07/01:20am 7.8 2.2 5.4 85 1.1 SW 24 26 13 14 - - 0.0
07/01:10am 8.1 2.5 5.3 82 1.3 SW 24 26 13 14 - - 0.0
07/01:00am 8.4 3.2 5.6 82 1.3 WSW 22 28 12 15 - - 0.0
07/12:50am 9.0 2.6 5.3 77 1.8 WSW 28 33 15 18 - - 0.0
07/12:40am 9.1 3.0 4.7 74 2.1 WSW 26 30 14 16 - - 0.0
07/12:30am 9.5 3.2 5.6 76 1.9 WSW 28 30 15 16 - - 0.0
07/12:20am 9.8 2.3 4.6 70 2.5 WSW 33 35 18 19 - - 0.0
07/12:10am 9.8 2.6 5.0 72 2.3 WSW 32 35 17 19 - - 0.0
07/12:00am 9.7 3.3 5.2 73 2.2 WSW 28 32 15 17 - - 0.0
 
Date/Time
EST
Temp
°C
App
Temp
°C
Dew
Point
°C
Rel
Hum
%
Delta-T
°C
Wind Press
QNH
hPa
Press
MSL
hPa
Rain since
9am
mm
Dir  Spd
km/h
Gust
km/h
Spd
kts
Gust
kts
06/11:50pm 9.7 4.5 5.4 74 2.1 WSW 22 28 12 15 - - 0.0
06/11:40pm 10.0 5.1 5.3 72 2.3 WSW 20 22 11 12 - - 0.0
06/11:30pm 10.7 5.4 5.2 69 2.7 WSW 22 26 12 14 - - 0.0
06/11:20pm 11.1 4.6 4.8 65 3.0 WSW 28 28 15 15 - - 0.0
06/11:10pm 11.1 5.7 4.7 64 3.1 WSW 22 26 12 14 - - 0.0
06/11:00pm 11.1 5.7 4.5 64 3.2 WSW 22 26 12 14 - - 0.0
06/10:50pm 11.3 5.9 4.7 64 3.2 WSW 22 26 12 14 - - 0.0
06/10:40pm 11.5 6.5 4.6 62 3.3 WSW 20 24 11 13 - - 0.0
06/10:30pm 11.5 6.1 4.7 63 3.3 WSW 22 26 12 14 - - 0.0
06/10:20pm 11.6 5.5 4.8 63 3.3 WSW 26 30 14 16 - - 0.0
06/10:10pm 11.8 6.5 5.0 63 3.3 WSW 22 28 12 15 - - 0.0
06/10:00pm 12.0 7.1 5.0 62 3.4 WSW 20 22 11 12 - - 0.0
06/09:50pm 12.1 6.1 5.1 62 3.4 WSW 26 30 14 16 - - 0.0
06/09:40pm 12.1 5.7 5.1 62 3.4 WSW 28 30 15 16 - - 0.0
06/09:30pm 12.1 6.8 5.2 62 3.4 WSW 22 26 12 14 - - 0.0
06/09:20pm 12.0 7.3 5.2 63 3.3 WSW 19 20 10 11 - - 0.0
06/09:10pm 11.8 7.5 5.2 64 3.2 SW 17 20 9 11 - - 0.0
06/09:00pm 11.6 7.0 5.6 66 2.9 SW 19 22 10 12 - - 0.0
06/08:50pm 11.7 7.1 5.6 66 3.0 SW 19 22 10 12 - - 0.0
06/08:40pm 11.8 7.2 5.6 66 3.0 SW 19 20 10 11 - - 0.0
06/08:30pm 12.1 7.9 5.5 64 3.2 SW 17 19 9 10 - - 0.0
06/08:20pm 12.2 7.8 5.0 61 3.5 SW 17 20 9 11 - - 0.0
06/08:10pm 12.0 7.7 5.3 63 3.3 SW 17 19 9 10 - - 0.0
06/08:00pm 12.3 8.8 5.5 63 3.3 SW 13 17 7 9 - - 0.0
06/07:50pm 12.7 9.2 5.4 61 3.6 SW 13 17 7 9 - - 0.0
06/07:40pm 13.4 9.8 5.2 57 4.0 WSW 13 15 7 8 - - 0.0
06/07:30pm 13.8 9.7 4.1 52 4.7 W 15 17 8 9 - - 0.0
06/07:20pm 13.9 9.8 4.1 51 4.7 WSW 15 19 8 10 - - 0.0
06/07:10pm 14.0 10.8 5.1 55 4.4 W 11 13 6 7 - - 0.0
06/07:00pm 14.1 11.3 5.3 55 4.4 W 9 13 5 7 - - 0.0
06/06:50pm 14.0 11.2 5.1 55 4.4 WSW 9 13 5 7 - - 0.0
06/06:40pm 14.1 11.9 5.1 54 4.4 WSW 6 7 3 4 - - 0.0
06/06:30pm 14.4 12.5 4.9 53 4.7 W 4 6 2 3 - - 0.0

Other formats

Comma delimited format used in spreadsheet applications
http://www.bom.gov.au/fwo/IDN60801/IDN60801.99999.axf

JavaScript Object Notation format (JSON) in row-major order
http://www.bom.gov.au/fwo/IDN60801/IDN60801.99999.json

Data quality

Most of these data are generated automatically and are frequently updated. Quality checks on data are not normally performed. It is possible for incorrect values to appear. Refer to information at About Latest Weather Observations and please check the disclaimer before using these data.